METAR TAF

[Source: ADDS]
METAR
LFCR 022030Z AUTO 29008KT 9999 FEW027 BKN058 OVC068 16/12 Q1021 NOSIG =
LFCR 021700Z 0218/0318 30013KT 9999 BKN040 TEMPO 0222/0301 30006KT BECMG 0304/0306 CAVOK LFBA 022030Z AUTO 26007KT 9999 FEW035 SCT056 BKN088 19/13 Q1021 =
LFBA 021400Z 0215/0224 29007KT 9999 BKN045 LFSL 022030Z AUTO 26003KT 190V290 CAVOK 16/12 Q1020 =
LFSL 021400Z 0215/0224 31007KT CAVOK LFLW 022030Z AUTO 30005KT 9999 BKN049 BKN056 15/11 Q1021 =
LFLW 021400Z 0215/0224 31008KT 9999 BKN035 TEMPO 0218/0221 CAVOK
TAF
LFCR 021700Z 0218/0318 30013KT 9999 BKN040 TEMPO 0222/0301 30006KT BECMG 0304/0306 CAVOK =
LFBA 021400Z 0215/0224 29007KT 9999 BKN045 =
LFSL 021400Z 0215/0224 31007KT CAVOK =
LFLW 021400Z 0215/0224 31008KT 9999 BKN035 TEMPO 0218/0221 CAVOK =
SR / SS: 04:14 / 19:41 UTC (LFCC 2020-07-02)